sensor_id;sensor_type;location;lat;lon;timestamp;P1;durP1;ratioP1;P2;durP2;ratioP2
19554;SDS011;9924;50.828;6.440;2023-06-22T00:01:09;9.70;;;2.88;;
19554;SDS011;9924;50.828;6.440;2023-06-22T00:03:53;5.22;;;2.67;;
19554;SDS011;9924;50.828;6.440;2023-06-22T00:06:37;5.35;;;2.83;;
19554;SDS011;9924;50.828;6.440;2023-06-22T00:09:22;5.88;;;2.78;;
19554;SDS011;9924;50.828;6.440;2023-06-22T00:12:06;5.03;;;2.15;;
19554;SDS011;9924;50.828;6.440;2023-06-22T00:14:51;5.28;;;2.80;;
19554;SDS011;9924;50.828;6.440;2023-06-22T00:17:35;7.15;;;3.10;;
19554;SDS011;9924;50.828;6.440;2023-06-22T00:20:19;8.15;;;3.08;;
19554;SDS011;9924;50.828;6.440;2023-06-22T00:23:05;8.00;;;3.00;;
19554;SDS011;9924;50.828;6.440;2023-06-22T00:25:54;13.95;;;3.80;;
19554;SDS011;9924;50.828;6.440;2023-06-22T00:28:38;11.38;;;3.95;;
19554;SDS011;9924;50.828;6.440;2023-06-22T00:31:22;9.27;;;3.95;;
19554;SDS011;9924;50.828;6.440;2023-06-22T00:34:08;12.90;;;3.80;;
19554;SDS011;9924;50.828;6.440;2023-06-22T00:36:52;16.30;;;4.22;;
19554;SDS011;9924;50.828;6.440;2023-06-22T00:39:36;10.70;;;4.15;;
19554;SDS011;9924;50.828;6.440;2023-06-22T00:42:21;11.68;;;4.15;;
19554;SDS011;9924;50.828;6.440;2023-06-22T00:45:06;15.00;;;4.45;;
19554;SDS011;9924;50.828;6.440;2023-06-22T00:47:51;12.50;;;4.15;;
19554;SDS011;9924;50.828;6.440;2023-06-22T00:50:36;8.05;;;4.57;;
19554;SDS011;9924;50.828;6.440;2023-06-22T00:53:20;11.10;;;4.95;;
19554;SDS011;9924;50.828;6.440;2023-06-22T00:56:05;10.07;;;4.63;;
19554;SDS011;9924;50.828;6.440;2023-06-22T00:58:50;10.65;;;4.63;;
19554;SDS011;9924;50.828;6.440;2023-06-22T01:01:36;7.25;;;4.28;;
19554;SDS011;9924;50.828;6.440;2023-06-22T01:04:33;11.15;;;4.63;;
19554;SDS011;9924;50.828;6.440;2023-06-22T01:10:16;16.20;;;5.47;;
19554;SDS011;9924;50.828;6.440;2023-06-22T01:13:23;10.27;;;4.85;;
19554;SDS011;9924;50.828;6.440;2023-06-22T01:19:16;13.43;;;4.57;;
19554;SDS011;9924;50.828;6.440;2023-06-22T01:22:25;9.00;;;3.97;;
19554;SDS011;9924;50.828;6.440;2023-06-22T01:25:18;10.07;;;4.70;;
19554;SDS011;9924;50.828;6.440;2023-06-22T01:28:05;7.25;;;4.07;;
19554;SDS011;9924;50.828;6.440;2023-06-22T01:30:58;7.60;;;4.20;;
19554;SDS011;9924;50.828;6.440;2023-06-22T01:33:51;7.82;;;4.28;;
19554;SDS011;9924;50.828;6.440;2023-06-22T01:36:38;12.10;;;4.50;;
19554;SDS011;9924;50.828;6.440;2023-06-22T01:39:24;10.52;;;5.03;;
19554;SDS011;9924;50.828;6.440;2023-06-22T01:42:10;12.23;;;5.55;;
19554;SDS011;9924;50.828;6.440;2023-06-22T01:44:54;8.70;;;5.68;;
19554;SDS011;9924;50.828;6.440;2023-06-22T01:47:39;6.63;;;4.90;;
19554;SDS011;9924;50.828;6.440;2023-06-22T01:50:25;8.25;;;5.03;;
19554;SDS011;9924;50.828;6.440;2023-06-22T01:53:09;7.18;;;5.15;;
19554;SDS011;9924;50.828;6.440;2023-06-22T01:55:53;7.15;;;5.22;;
19554;SDS011;9924;50.828;6.440;2023-06-22T01:58:41;8.55;;;5.85;;
19554;SDS011;9924;50.828;6.440;2023-06-22T02:01:33;11.13;;;5.47;;
19554;SDS011;9924;50.828;6.440;2023-06-22T02:04:29;9.93;;;6.13;;
19554;SDS011;9924;50.828;6.440;2023-06-22T02:07:23;13.02;;;4.85;;
19554;SDS011;9924;50.828;6.440;2023-06-22T02:10:10;9.48;;;4.78;;
19554;SDS011;9924;50.828;6.440;2023-06-22T02:12:59;8.68;;;4.88;;
19554;SDS011;9924;50.828;6.440;2023-06-22T02:15:46;11.48;;;5.18;;
19554;SDS011;9924;50.828;6.440;2023-06-22T02:18:31;15.38;;;6.28;;
19554;SDS011;9924;50.828;6.440;2023-06-22T02:21:16;8.63;;;4.95;;
19554;SDS011;9924;50.828;6.440;2023-06-22T02:24:03;8.75;;;4.63;;
19554;SDS011;9924;50.828;6.440;2023-06-22T02:26:48;11.48;;;5.53;;
19554;SDS011;9924;50.828;6.440;2023-06-22T02:29:33;10.85;;;5.00;;
19554;SDS011;9924;50.828;6.440;2023-06-22T02:32:17;10.40;;;4.78;;
19554;SDS011;9924;50.828;6.440;2023-06-22T02:35:01;8.50;;;4.70;;
19554;SDS011;9924;50.828;6.440;2023-06-22T02:37:48;8.75;;;5.35;;
19554;SDS011;9924;50.828;6.440;2023-06-22T02:40:35;8.63;;;4.90;;
19554;SDS011;9924;50.828;6.440;2023-06-22T02:43:20;7.65;;;4.57;;
19554;SDS011;9924;50.828;6.440;2023-06-22T02:46:04;8.98;;;4.50;;
19554;SDS011;9924;50.828;6.440;2023-06-22T02:48:49;6.68;;;3.65;;
19554;SDS011;9924;50.828;6.440;2023-06-22T02:51:33;10.43;;;4.30;;
19554;SDS011;9924;50.828;6.440;2023-06-22T02:54:18;6.20;;;3.90;;
19554;SDS011;9924;50.828;6.440;2023-06-22T02:57:02;9.90;;;3.83;;
19554;SDS011;9924;50.828;6.440;2023-06-22T02:59:47;6.68;;;4.20;;
19554;SDS011;9924;50.828;6.440;2023-06-22T03:02:31;8.27;;;3.72;;
19554;SDS011;9924;50.828;6.440;2023-06-22T03:05:16;9.32;;;3.70;;
19554;SDS011;9924;50.828;6.440;2023-06-22T03:08:01;11.25;;;4.07;;
19554;SDS011;9924;50.828;6.440;2023-06-22T03:10:45;7.68;;;3.90;;
19554;SDS011;9924;50.828;6.440;2023-06-22T03:13:30;5.07;;;4.25;;
19554;SDS011;9924;50.828;6.440;2023-06-22T03:16:14;7.35;;;4.15;;
19554;SDS011;9924;50.828;6.440;2023-06-22T03:18:58;6.53;;;4.15;;
19554;SDS011;9924;50.828;6.440;2023-06-22T03:21:43;7.90;;;4.00;;
19554;SDS011;9924;50.828;6.440;2023-06-22T03:24:27;9.60;;;4.00;;
19554;SDS011;9924;50.828;6.440;2023-06-22T03:27:13;11.05;;;4.53;;
19554;SDS011;9924;50.828;6.440;2023-06-22T03:29:57;6.47;;;3.95;;
19554;SDS011;9924;50.828;6.440;2023-06-22T03:32:42;5.85;;;4.15;;
19554;SDS011;9924;50.828;6.440;2023-06-22T03:35:27;6.93;;;4.53;;
19554;SDS011;9924;50.828;6.440;2023-06-22T03:38:11;8.80;;;4.38;;
19554;SDS011;9924;50.828;6.440;2023-06-22T03:40:56;8.75;;;4.32;;
19554;SDS011;9924;50.828;6.440;2023-06-22T03:43:41;7.97;;;4.10;;
19554;SDS011;9924;50.828;6.440;2023-06-22T03:46:25;7.47;;;4.18;;
19554;SDS011;9924;50.828;6.440;2023-06-22T03:49:10;9.30;;;3.97;;
19554;SDS011;9924;50.828;6.440;2023-06-22T03:51:54;10.23;;;4.35;;
19554;SDS011;9924;50.828;6.440;2023-06-22T03:54:39;8.15;;;4.10;;
19554;SDS011;9924;50.828;6.440;2023-06-22T03:57:23;7.20;;;4.28;;
19554;SDS011;9924;50.828;6.440;2023-06-22T04:00:08;8.80;;;4.53;;
19554;SDS011;9924;50.828;6.440;2023-06-22T04:02:54;10.50;;;4.30;;
19554;SDS011;9924;50.828;6.440;2023-06-22T04:05:39;7.78;;;4.20;;
19554;SDS011;9924;50.828;6.440;2023-06-22T04:08:23;7.15;;;4.15;;
19554;SDS011;9924;50.828;6.440;2023-06-22T04:11:08;5.90;;;4.60;;
19554;SDS011;9924;50.828;6.440;2023-06-22T04:13:52;8.75;;;3.97;;
19554;SDS011;9924;50.828;6.440;2023-06-22T04:16:37;7.25;;;4.20;;
19554;SDS011;9924;50.828;6.440;2023-06-22T04:19:21;6.35;;;4.53;;
19554;SDS011;9924;50.828;6.440;2023-06-22T04:22:06;6.32;;;4.70;;
19554;SDS011;9924;50.828;6.440;2023-06-22T04:24:50;6.82;;;4.63;;
19554;SDS011;9924;50.828;6.440;2023-06-22T04:27:36;8.75;;;4.20;;
19554;SDS011;9924;50.828;6.440;2023-06-22T04:30:23;7.03;;;3.78;;
19554;SDS011;9924;50.828;6.440;2023-06-22T04:33:08;8.60;;;4.05;;
19554;SDS011;9924;50.828;6.440;2023-06-22T04:35:53;13.27;;;4.60;;
19554;SDS011;9924;50.828;6.440;2023-06-22T04:38:37;12.60;;;4.03;;
19554;SDS011;9924;50.828;6.440;2023-06-22T04:41:21;9.75;;;4.30;;
19554;SDS011;9924;50.828;6.440;2023-06-22T04:44:11;8.07;;;4.40;;
19554;SDS011;9924;50.828;6.440;2023-06-22T04:46:57;7.32;;;4.18;;
19554;SDS011;9924;50.828;6.440;2023-06-22T04:49:47;6.43;;;4.18;;
19554;SDS011;9924;50.828;6.440;2023-06-22T04:52:31;6.57;;;4.22;;
19554;SDS011;9924;50.828;6.440;2023-06-22T04:55:15;9.63;;;4.30;;
19554;SDS011;9924;50.828;6.440;2023-06-22T04:58:03;6.45;;;4.57;;
19554;SDS011;9924;50.828;6.440;2023-06-22T05:00:51;9.95;;;3.95;;
19554;SDS011;9924;50.828;6.440;2023-06-22T05:03:35;10.18;;;4.38;;
19554;SDS011;9924;50.828;6.440;2023-06-22T05:06:23;6.30;;;4.35;;
19554;SDS011;9924;50.828;6.440;2023-06-22T05:09:08;9.98;;;4.72;;
19554;SDS011;9924;50.828;6.440;2023-06-22T05:11:53;4.65;;;4.10;;
19554;SDS011;9924;50.828;6.440;2023-06-22T05:14:37;14.27;;;4.97;;
19554;SDS011;9924;50.828;6.440;2023-06-22T05:17:21;7.78;;;4.70;;
19554;SDS011;9924;50.828;6.440;2023-06-22T05:20:06;9.95;;;4.80;;
19554;SDS011;9924;50.828;6.440;2023-06-22T05:22:50;8.48;;;5.95;;
19554;SDS011;9924;50.828;6.440;2023-06-22T05:25:35;10.65;;;5.55;;
19554;SDS011;9924;50.828;6.440;2023-06-22T05:28:19;8.63;;;5.55;;
19554;SDS011;9924;50.828;6.440;2023-06-22T05:31:06;13.63;;;5.78;;
19554;SDS011;9924;50.828;6.440;2023-06-22T05:33:52;11.88;;;5.57;;
19554;SDS011;9924;50.828;6.440;2023-06-22T05:36:37;11.15;;;5.53;;
19554;SDS011;9924;50.828;6.440;2023-06-22T05:39:22;10.90;;;5.30;;
19554;SDS011;9924;50.828;6.440;2023-06-22T05:42:07;14.02;;;6.00;;
19554;SDS011;9924;50.828;6.440;2023-06-22T05:44:52;15.80;;;6.75;;
19554;SDS011;9924;50.828;6.440;2023-06-22T05:47:37;9.77;;;6.13;;
19554;SDS011;9924;50.828;6.440;2023-06-22T05:50:21;16.83;;;5.80;;
19554;SDS011;9924;50.828;6.440;2023-06-22T05:53:05;13.63;;;6.38;;
19554;SDS011;9924;50.828;6.440;2023-06-22T05:55:50;16.58;;;6.15;;
19554;SDS011;9924;50.828;6.440;2023-06-22T05:58:35;18.27;;;5.68;;
19554;SDS011;9924;50.828;6.440;2023-06-22T06:01:19;15.82;;;5.75;;
19554;SDS011;9924;50.828;6.440;2023-06-22T06:04:04;18.00;;;5.95;;
19554;SDS011;9924;50.828;6.440;2023-06-22T06:06:48;19.02;;;6.00;;
19554;SDS011;9924;50.828;6.440;2023-06-22T06:09:33;15.57;;;5.60;;
19554;SDS011;9924;50.828;6.440;2023-06-22T06:12:17;19.15;;;6.55;;
19554;SDS011;9924;50.828;6.440;2023-06-22T06:15:02;14.70;;;6.38;;
19554;SDS011;9924;50.828;6.440;2023-06-22T06:17:50;15.25;;;4.90;;
19554;SDS011;9924;50.828;6.440;2023-06-22T06:20:36;20.33;;;5.55;;
19554;SDS011;9924;50.828;6.440;2023-06-22T06:23:20;14.85;;;6.15;;
19554;SDS011;9924;50.828;6.440;2023-06-22T06:26:04;12.43;;;5.30;;
19554;SDS011;9924;50.828;6.440;2023-06-22T06:28:50;16.08;;;6.15;;
19554;SDS011;9924;50.828;6.440;2023-06-22T06:31:35;17.80;;;5.63;;
19554;SDS011;9924;50.828;6.440;2023-06-22T06:34:20;19.55;;;6.20;;
19554;SDS011;9924;50.828;6.440;2023-06-22T06:37:04;12.35;;;5.57;;
19554;SDS011;9924;50.828;6.440;2023-06-22T06:39:48;16.40;;;5.32;;
19554;SDS011;9924;50.828;6.440;2023-06-22T06:42:32;14.32;;;5.28;;
19554;SDS011;9924;50.828;6.440;2023-06-22T06:45:18;12.00;;;5.50;;
19554;SDS011;9924;50.828;6.440;2023-06-22T06:48:04;15.73;;;5.82;;
19554;SDS011;9924;50.828;6.440;2023-06-22T06:50:48;11.88;;;5.97;;
19554;SDS011;9924;50.828;6.440;2023-06-22T06:53:33;12.73;;;6.40;;
19554;SDS011;9924;50.828;6.440;2023-06-22T06:56:19;11.52;;;5.72;;
19554;SDS011;9924;50.828;6.440;2023-06-22T06:59:04;10.95;;;5.88;;
19554;SDS011;9924;50.828;6.440;2023-06-22T07:01:48;11.82;;;5.28;;
19554;SDS011;9924;50.828;6.440;2023-06-22T07:04:33;11.68;;;6.30;;
19554;SDS011;9924;50.828;6.440;2023-06-22T07:07:17;10.63;;;6.03;;
19554;SDS011;9924;50.828;6.440;2023-06-22T07:10:02;9.57;;;6.28;;
19554;SDS011;9924;50.828;6.440;2023-06-22T07:12:46;8.77;;;6.07;;
19554;SDS011;9924;50.828;6.440;2023-06-22T07:15:30;10.82;;;6.05;;
19554;SDS011;9924;50.828;6.440;2023-06-22T07:18:15;12.52;;;7.18;;
19554;SDS011;9924;50.828;6.440;2023-06-22T07:20:59;9.77;;;7.22;;
19554;SDS011;9924;50.828;6.440;2023-06-22T07:23:44;15.05;;;8.30;;
19554;SDS011;9924;50.828;6.440;2023-06-22T07:26:28;10.95;;;7.45;;
19554;SDS011;9924;50.828;6.440;2023-06-22T07:29:13;15.30;;;7.43;;
19554;SDS011;9924;50.828;6.440;2023-06-22T07:31:58;10.50;;;6.47;;
19554;SDS011;9924;50.828;6.440;2023-06-22T07:34:44;9.23;;;7.32;;
19554;SDS011;9924;50.828;6.440;2023-06-22T07:37:29;15.15;;;6.95;;
19554;SDS011;9924;50.828;6.440;2023-06-22T07:40:14;15.85;;;8.00;;
19554;SDS011;9924;50.828;6.440;2023-06-22T07:42:59;12.32;;;7.43;;
19554;SDS011;9924;50.828;6.440;2023-06-22T07:45:47;12.10;;;8.00;;
19554;SDS011;9924;50.828;6.440;2023-06-22T07:48:36;14.02;;;7.32;;
19554;SDS011;9924;50.828;6.440;2023-06-22T07:51:21;18.75;;;8.00;;
19554;SDS011;9924;50.828;6.440;2023-06-22T07:54:05;23.98;;;7.28;;
19554;SDS011;9924;50.828;6.440;2023-06-22T07:56:50;11.82;;;8.07;;
19554;SDS011;9924;50.828;6.440;2023-06-22T07:59:35;14.63;;;7.40;;
19554;SDS011;9924;50.828;6.440;2023-06-22T08:02:20;13.68;;;8.00;;
19554;SDS011;9924;50.828;6.440;2023-06-22T08:05:04;12.70;;;7.78;;
19554;SDS011;9924;50.828;6.440;2023-06-22T08:07:50;19.17;;;8.32;;
19554;SDS011;9924;50.828;6.440;2023-06-22T08:10:35;12.13;;;7.45;;
19554;SDS011;9924;50.828;6.440;2023-06-22T08:13:20;10.15;;;6.80;;
19554;SDS011;9924;50.828;6.440;2023-06-22T08:16:04;10.60;;;6.65;;
19554;SDS011;9924;50.828;6.440;2023-06-22T08:18:49;11.35;;;7.20;;
19554;SDS011;9924;50.828;6.440;2023-06-22T08:21:33;12.57;;;6.82;;
19554;SDS011;9924;50.828;6.440;2023-06-22T08:24:17;12.82;;;7.95;;
19554;SDS011;9924;50.828;6.440;2023-06-22T08:27:02;12.65;;;7.97;;
19554;SDS011;9924;50.828;6.440;2023-06-22T08:29:47;13.35;;;8.32;;
19554;SDS011;9924;50.828;6.440;2023-06-22T08:32:33;12.57;;;7.85;;
19554;SDS011;9924;50.828;6.440;2023-06-22T08:35:17;14.73;;;7.80;;
19554;SDS011;9924;50.828;6.440;2023-06-22T08:38:02;13.95;;;8.10;;
19554;SDS011;9924;50.828;6.440;2023-06-22T08:40:46;13.02;;;8.75;;
19554;SDS011;9924;50.828;6.440;2023-06-22T08:43:31;15.25;;;8.13;;
19554;SDS011;9924;50.828;6.440;2023-06-22T08:46:15;10.50;;;7.72;;
19554;SDS011;9924;50.828;6.440;2023-06-22T08:49:04;12.50;;;7.35;;
19554;SDS011;9924;50.828;6.440;2023-06-22T08:51:48;16.25;;;8.75;;
19554;SDS011;9924;50.828;6.440;2023-06-22T08:54:33;10.13;;;7.43;;
19554;SDS011;9924;50.828;6.440;2023-06-22T08:57:18;10.63;;;7.38;;
19554;SDS011;9924;50.828;6.440;2023-06-22T09:00:03;10.15;;;8.98;;
19554;SDS011;9924;50.828;6.440;2023-06-22T09:02:49;12.65;;;8.50;;
19554;SDS011;9924;50.828;6.440;2023-06-22T09:05:33;11.77;;;9.55;;
19554;SDS011;9924;50.828;6.440;2023-06-22T09:08:18;12.25;;;8.65;;
19554;SDS011;9924;50.828;6.440;2023-06-22T09:11:02;16.60;;;10.10;;
19554;SDS011;9924;50.828;6.440;2023-06-22T09:13:47;16.00;;;9.45;;
19554;SDS011;9924;50.828;6.440;2023-06-22T09:16:31;17.75;;;8.70;;
19554;SDS011;9924;50.828;6.440;2023-06-22T09:19:16;19.65;;;9.60;;
19554;SDS011;9924;50.828;6.440;2023-06-22T09:22:00;16.80;;;9.20;;
19554;SDS011;9924;50.828;6.440;2023-06-22T09:24:45;12.38;;;8.63;;
19554;SDS011;9924;50.828;6.440;2023-06-22T09:27:30;11.73;;;8.73;;
19554;SDS011;9924;50.828;6.440;2023-06-22T09:30:14;10.85;;;7.78;;
19554;SDS011;9924;50.828;6.440;2023-06-22T09:32:59;10.40;;;8.45;;
19554;SDS011;9924;50.828;6.440;2023-06-22T09:35:44;16.90;;;9.60;;
19554;SDS011;9924;50.828;6.440;2023-06-22T09:38:29;11.80;;;8.07;;
19554;SDS011;9924;50.828;6.440;2023-06-22T09:41:13;13.02;;;8.48;;
19554;SDS011;9924;50.828;6.440;2023-06-22T09:43:58;16.55;;;9.65;;
19554;SDS011;9924;50.828;6.440;2023-06-22T09:46:42;13.57;;;8.80;;
19554;SDS011;9924;50.828;6.440;2023-06-22T09:49:27;11.05;;;8.07;;
19554;SDS011;9924;50.828;6.440;2023-06-22T09:52:11;12.30;;;9.45;;
19554;SDS011;9924;50.828;6.440;2023-06-22T09:54:55;18.77;;;9.45;;
19554;SDS011;9924;50.828;6.440;2023-06-22T09:57:40;15.82;;;9.32;;
19554;SDS011;9924;50.828;6.440;2023-06-22T10:00:24;15.90;;;9.27;;
19554;SDS011;9924;50.828;6.440;2023-06-22T10:03:10;18.05;;;9.13;;
19554;SDS011;9924;50.828;6.440;2023-06-22T10:05:55;14.73;;;10.43;;
19554;SDS011;9924;50.828;6.440;2023-06-22T10:08:40;13.45;;;9.82;;
19554;SDS011;9924;50.828;6.440;2023-06-22T10:11:24;16.23;;;11.05;;
19554;SDS011;9924;50.828;6.440;2023-06-22T10:14:12;16.92;;;11.20;;
19554;SDS011;9924;50.828;6.440;2023-06-22T10:16:57;20.10;;;10.85;;
19554;SDS011;9924;50.828;6.440;2023-06-22T10:19:41;16.88;;;11.63;;
19554;SDS011;9924;50.828;6.440;2023-06-22T10:22:25;20.15;;;12.65;;
19554;SDS011;9924;50.828;6.440;2023-06-22T10:25:11;21.52;;;12.60;;
19554;SDS011;9924;50.828;6.440;2023-06-22T10:27:56;18.00;;;13.23;;
19554;SDS011;9924;50.828;6.440;2023-06-22T10:30:41;16.92;;;12.75;;
19554;SDS011;9924;50.828;6.440;2023-06-22T10:33:25;21.83;;;13.15;;
19554;SDS011;9924;50.828;6.440;2023-06-22T10:36:10;21.75;;;13.88;;
19554;SDS011;9924;50.828;6.440;2023-06-22T10:38:54;18.20;;;13.32;;
19554;SDS011;9924;50.828;6.440;2023-06-22T10:41:39;21.30;;;15.75;;
19554;SDS011;9924;50.828;6.440;2023-06-22T10:44:23;24.23;;;15.95;;
19554;SDS011;9924;50.828;6.440;2023-06-22T10:47:08;22.35;;;17.38;;
19554;SDS011;9924;50.828;6.440;2023-06-22T10:49:52;23.52;;;16.27;;
19554;SDS011;9924;50.828;6.440;2023-06-22T10:52:36;26.55;;;16.50;;
19554;SDS011;9924;50.828;6.440;2023-06-22T10:55:21;23.17;;;16.83;;
19554;SDS011;9924;50.828;6.440;2023-06-22T10:58:05;23.15;;;17.17;;
19554;SDS011;9924;50.828;6.440;2023-06-22T11:00:49;29.00;;;19.45;;
19554;SDS011;9924;50.828;6.440;2023-06-22T11:03:34;30.90;;;18.67;;
19554;SDS011;9924;50.828;6.440;2023-06-22T11:06:18;27.50;;;19.27;;
19554;SDS011;9924;50.828;6.440;2023-06-22T11:09:03;27.23;;;19.85;;
19554;SDS011;9924;50.828;6.440;2023-06-22T11:11:49;23.33;;;16.98;;
19554;SDS011;9924;50.828;6.440;2023-06-22T11:14:34;21.40;;;16.85;;
19554;SDS011;9924;50.828;6.440;2023-06-22T11:17:18;20.70;;;17.63;;
19554;SDS011;9924;50.828;6.440;2023-06-22T11:20:03;24.30;;;18.95;;
19554;SDS011;9924;50.828;6.440;2023-06-22T11:22:54;18.73;;;16.10;;
19554;SDS011;9924;50.828;6.440;2023-06-22T11:25:39;20.73;;;17.10;;
19554;SDS011;9924;50.828;6.440;2023-06-22T11:28:27;24.23;;;17.60;;
19554;SDS011;9924;50.828;6.440;2023-06-22T11:31:11;27.30;;;18.30;;
19554;SDS011;9924;50.828;6.440;2023-06-22T11:33:56;22.80;;;15.93;;
19554;SDS011;9924;50.828;6.440;2023-06-22T11:36:40;22.27;;;16.02;;
19554;SDS011;9924;50.828;6.440;2023-06-22T11:39:24;21.55;;;17.65;;
19554;SDS011;9924;50.828;6.440;2023-06-22T11:42:09;22.83;;;16.75;;
19554;SDS011;9924;50.828;6.440;2023-06-22T11:44:54;21.08;;;17.02;;
19554;SDS011;9924;50.828;6.440;2023-06-22T11:47:38;22.15;;;16.25;;
19554;SDS011;9924;50.828;6.440;2023-06-22T11:50:22;19.20;;;15.80;;
19554;SDS011;9924;50.828;6.440;2023-06-22T11:53:07;22.15;;;16.63;;
19554;SDS011;9924;50.828;6.440;2023-06-22T11:55:51;22.10;;;17.30;;
19554;SDS011;9924;50.828;6.440;2023-06-22T11:58:39;22.92;;;18.70;;
19554;SDS011;9924;50.828;6.440;2023-06-22T12:01:23;28.25;;;19.70;;
19554;SDS011;9924;50.828;6.440;2023-06-22T12:04:07;29.00;;;18.83;;
19554;SDS011;9924;50.828;6.440;2023-06-22T12:06:54;25.38;;;18.58;;
19554;SDS011;9924;50.828;6.440;2023-06-22T12:09:39;22.13;;;16.63;;
19554;SDS011;9924;50.828;6.440;2023-06-22T12:12:24;22.88;;;16.02;;
19554;SDS011;9924;50.828;6.440;2023-06-22T12:15:09;26.48;;;16.17;;
19554;SDS011;9924;50.828;6.440;2023-06-22T12:17:53;19.25;;;15.55;;
19554;SDS011;9924;50.828;6.440;2023-06-22T12:20:38;22.02;;;16.38;;
19554;SDS011;9924;50.828;6.440;2023-06-22T12:23:22;16.95;;;14.15;;
19554;SDS011;9924;50.828;6.440;2023-06-22T12:26:07;20.48;;;16.38;;
19554;SDS011;9924;50.828;6.440;2023-06-22T12:28:51;16.95;;;14.13;;
19554;SDS011;9924;50.828;6.440;2023-06-22T12:31:35;18.70;;;14.02;;
19554;SDS011;9924;50.828;6.440;2023-06-22T12:34:22;17.88;;;14.70;;
19554;SDS011;9924;50.828;6.440;2023-06-22T12:37:07;17.60;;;13.52;;
19554;SDS011;9924;50.828;6.440;2023-06-22T12:39:51;18.58;;;13.88;;
19554;SDS011;9924;50.828;6.440;2023-06-22T12:42:36;15.80;;;13.30;;
19554;SDS011;9924;50.828;6.440;2023-06-22T12:45:21;18.45;;;13.65;;
19554;SDS011;9924;50.828;6.440;2023-06-22T12:48:05;18.83;;;14.68;;
19554;SDS011;9924;50.828;6.440;2023-06-22T12:50:50;19.67;;;14.48;;
19554;SDS011;9924;50.828;6.440;2023-06-22T12:53:35;20.88;;;14.43;;
19554;SDS011;9924;50.828;6.440;2023-06-22T12:56:19;20.63;;;15.18;;
19554;SDS011;9924;50.828;6.440;2023-06-22T12:59:04;22.88;;;14.88;;
19554;SDS011;9924;50.828;6.440;2023-06-22T13:01:50;20.17;;;15.75;;
19554;SDS011;9924;50.828;6.440;2023-06-22T13:04:34;23.95;;;17.00;;
19554;SDS011;9924;50.828;6.440;2023-06-22T13:07:18;19.90;;;15.15;;
19554;SDS011;9924;50.828;6.440;2023-06-22T13:10:02;22.90;;;16.50;;
19554;SDS011;9924;50.828;6.440;2023-06-22T13:12:47;19.77;;;15.70;;
19554;SDS011;9924;50.828;6.440;2023-06-22T13:15:31;24.05;;;15.65;;
19554;SDS011;9924;50.828;6.440;2023-06-22T13:18:16;24.77;;;17.58;;
19554;SDS011;9924;50.828;6.440;2023-06-22T13:21:00;22.27;;;16.15;;
19554;SDS011;9924;50.828;6.440;2023-06-22T13:23:44;20.77;;;16.77;;
19554;SDS011;9924;50.828;6.440;2023-06-22T13:26:29;20.52;;;17.05;;
19554;SDS011;9924;50.828;6.440;2023-06-22T13:29:14;20.95;;;16.60;;
19554;SDS011;9924;50.828;6.440;2023-06-22T13:31:58;21.90;;;18.15;;
19554;SDS011;9924;50.828;6.440;2023-06-22T13:34:43;22.40;;;17.67;;
19554;SDS011;9924;50.828;6.440;2023-06-22T13:37:27;21.00;;;17.40;;
19554;SDS011;9924;50.828;6.440;2023-06-22T13:40:12;22.90;;;18.40;;
19554;SDS011;9924;50.828;6.440;2023-06-22T13:42:56;26.73;;;19.45;;
19554;SDS011;9924;50.828;6.440;2023-06-22T13:45:41;25.08;;;19.40;;
19554;SDS011;9924;50.828;6.440;2023-06-22T13:48:25;26.00;;;19.58;;
19554;SDS011;9924;50.828;6.440;2023-06-22T13:51:09;24.92;;;17.58;;
19554;SDS011;9924;50.828;6.440;2023-06-22T13:53:54;26.42;;;17.90;;
19554;SDS011;9924;50.828;6.440;2023-06-22T13:56:38;22.48;;;17.20;;
19554;SDS011;9924;50.828;6.440;2023-06-22T13:59:23;22.35;;;18.63;;
19554;SDS011;9924;50.828;6.440;2023-06-22T14:02:07;22.20;;;18.60;;
19554;SDS011;9924;50.828;6.440;2023-06-22T14:04:52;23.60;;;19.45;;
19554;SDS011;9924;50.828;6.440;2023-06-22T14:07:37;23.60;;;17.98;;
19554;SDS011;9924;50.828;6.440;2023-06-22T14:10:21;23.63;;;18.88;;
19554;SDS011;9924;50.828;6.440;2023-06-22T14:13:05;22.27;;;17.58;;
19554;SDS011;9924;50.828;6.440;2023-06-22T14:15:50;20.35;;;16.55;;
19554;SDS011;9924;50.828;6.440;2023-06-22T14:18:35;21.33;;;16.77;;
19554;SDS011;9924;50.828;6.440;2023-06-22T14:21:20;20.95;;;16.77;;
19554;SDS011;9924;50.828;6.440;2023-06-22T14:24:04;22.33;;;15.50;;
19554;SDS011;9924;50.828;6.440;2023-06-22T14:26:48;18.58;;;14.35;;
19554;SDS011;9924;50.828;6.440;2023-06-22T14:29:33;21.67;;;16.05;;
19554;SDS011;9924;50.828;6.440;2023-06-22T14:32:17;24.83;;;16.85;;
19554;SDS011;9924;50.828;6.440;2023-06-22T14:35:02;27.13;;;17.98;;
19554;SDS011;9924;50.828;6.440;2023-06-22T14:37:47;24.85;;;17.45;;
19554;SDS011;9924;50.828;6.440;2023-06-22T14:40:33;24.08;;;19.20;;
19554;SDS011;9924;50.828;6.440;2023-06-22T14:43:17;29.52;;;21.42;;
19554;SDS011;9924;50.828;6.440;2023-06-22T14:46:03;28.17;;;20.45;;
19554;SDS011;9924;50.828;6.440;2023-06-22T14:48:47;26.08;;;20.20;;
19554;SDS011;9924;50.828;6.440;2023-06-22T14:51:31;29.65;;;22.45;;
19554;SDS011;9924;50.828;6.440;2023-06-22T14:54:16;30.13;;;22.38;;
19554;SDS011;9924;50.828;6.440;2023-06-22T14:57:01;34.00;;;23.73;;
19554;SDS011;9924;50.828;6.440;2023-06-22T14:59:46;32.42;;;25.65;;
19554;SDS011;9924;50.828;6.440;2023-06-22T15:02:33;33.92;;;26.50;;
19554;SDS011;9924;50.828;6.440;2023-06-22T15:05:18;37.35;;;28.52;;
19554;SDS011;9924;50.828;6.440;2023-06-22T15:08:02;40.17;;;30.48;;
19554;SDS011;9924;50.828;6.440;2023-06-22T15:10:46;39.97;;;30.08;;
19554;SDS011;9924;50.828;6.440;2023-06-22T15:13:31;44.95;;;32.58;;
19554;SDS011;9924;50.828;6.440;2023-06-22T15:16:18;45.03;;;35.40;;
19554;SDS011;9924;50.828;6.440;2023-06-22T15:19:02;48.92;;;36.17;;
19554;SDS011;9924;50.828;6.440;2023-06-22T15:21:47;50.97;;;36.13;;
19554;SDS011;9924;50.828;6.440;2023-06-22T15:24:31;46.15;;;33.90;;
19554;SDS011;9924;50.828;6.440;2023-06-22T15:27:16;51.55;;;35.28;;
19554;SDS011;9924;50.828;6.440;2023-06-22T15:30:00;48.85;;;33.05;;
19554;SDS011;9924;50.828;6.440;2023-06-22T15:32:47;44.28;;;30.92;;
19554;SDS011;9924;50.828;6.440;2023-06-22T15:35:33;41.95;;;30.40;;
19554;SDS011;9924;50.828;6.440;2023-06-22T15:38:17;44.88;;;31.63;;
19554;SDS011;9924;50.828;6.440;2023-06-22T15:41:01;41.83;;;31.08;;
19554;SDS011;9924;50.828;6.440;2023-06-22T15:43:46;47.33;;;31.40;;
19554;SDS011;9924;50.828;6.440;2023-06-22T15:46:30;44.67;;;32.22;;
19554;SDS011;9924;50.828;6.440;2023-06-22T15:49:16;48.22;;;36.70;;
19554;SDS011;9924;50.828;6.440;2023-06-22T15:52:00;14.40;;;7.13;;
19554;SDS011;9924;50.828;6.440;2023-06-22T15:54:45;11.38;;;7.05;;
19554;SDS011;9924;50.828;6.440;2023-06-22T15:57:30;25.95;;;18.58;;
19554;SDS011;9924;50.828;6.440;2023-06-22T16:00:15;30.85;;;23.67;;
19554;SDS011;9924;50.828;6.440;2023-06-22T16:03:01;31.60;;;24.38;;
19554;SDS011;9924;50.828;6.440;2023-06-22T16:05:45;25.38;;;20.38;;
19554;SDS011;9924;50.828;6.440;2023-06-22T16:08:29;18.10;;;13.48;;
19554;SDS011;9924;50.828;6.440;2023-06-22T16:11:14;12.05;;;8.75;;
19554;SDS011;9924;50.828;6.440;2023-06-22T16:13:59;8.70;;;6.70;;
19554;SDS011;9924;50.828;6.440;2023-06-22T16:16:43;10.27;;;7.70;;
19554;SDS011;9924;50.828;6.440;2023-06-22T16:19:28;9.73;;;7.18;;
19554;SDS011;9924;50.828;6.440;2023-06-22T16:22:12;9.77;;;8.18;;
19554;SDS011;9924;50.828;6.440;2023-06-22T16:24:57;15.38;;;10.65;;
19554;SDS011;9924;50.828;6.440;2023-06-22T16:27:43;14.45;;;11.20;;
19554;SDS011;9924;50.828;6.440;2023-06-22T16:30:28;13.90;;;11.02;;
19554;SDS011;9924;50.828;6.440;2023-06-22T16:33:12;16.00;;;10.95;;
19554;SDS011;9924;50.828;6.440;2023-06-22T16:35:56;13.98;;;9.85;;
19554;SDS011;9924;50.828;6.440;2023-06-22T16:38:41;15.55;;;11.60;;